AU-0028 weather

Moonambel Airfield
Victoria, Australia

Public forecast

Using degrees Celsius for public forecast. Weather courtesy of forecast.io.

Closest aviation weather report (METAR) to Moonambel Airfield

Closest report is Avalon Airport, 85.3 nm (158.1 km) SE. Retrieved 2019/10/24 04:30 UTC (0 seconds ago):

YMAV 240430Z AUTO 36015KT 9999 // NCD 34/02 Q1009 RF000/0000

Closest aviation forecast (TAF) to Moonambel Airfield

Forecast is more than 6 hours old.

Closest forecast is Avalon Airport, 85.3 nm (158.1 km) SE. Retrieved 2019/10/23 18:00 UTC (10 hours ago):

TAF YMAV 231705Z 2318/2418 04010KT CAVOK FM240000 35016G28KT CAVOK FM240500 35014KT CAVOK FM240700 03010KT CAVOK